createdAt,value
2018-12-17T00:02:02.905Z,24.07
2018-12-17T00:07:08.817Z,24.43
2018-12-17T00:12:16.471Z,27.07
2018-12-17T00:17:19.337Z,21.43
2018-12-17T00:22:23.135Z,23.00
2018-12-17T00:27:27.173Z,22.20
2018-12-17T00:32:31.260Z,20.10
2018-12-17T00:37:35.066Z,29.97
2018-12-17T00:42:39.075Z,25.40
2018-12-17T00:47:43.950Z,27.77
2018-12-17T00:52:47.649Z,28.20
2018-12-17T00:57:51.655Z,26.97
2018-12-17T01:02:55.755Z,25.90
2018-12-17T01:07:59.862Z,26.67
2018-12-17T01:13:03.991Z,27.53
2018-12-17T01:18:08.130Z,27.70
2018-12-17T01:23:12.218Z,27.00
2018-12-17T01:28:21.997Z,25.83
2018-12-17T01:33:22.414Z,24.17
2018-12-17T01:38:26.519Z,25.57
2018-12-17T01:43:30.627Z,23.97
2018-12-17T01:48:34.410Z,27.03
2018-12-17T01:53:38.422Z,28.33
2018-12-17T01:58:42.557Z,25.80
2018-12-17T02:03:46.659Z,25.10
2018-12-17T02:08:50.443Z,28.83
2018-12-17T02:13:54.466Z,26.23
2018-12-17T02:18:58.570Z,26.87
2018-12-17T02:24:02.690Z,25.60
2018-12-17T02:29:06.795Z,23.87
2018-12-17T02:34:10.586Z,26.43
2018-12-17T02:39:14.294Z,25.00
2018-12-17T02:44:18.126Z,24.17
2018-12-17T02:49:22.255Z,25.07
2018-12-17T02:54:26.379Z,24.10
2018-12-17T02:59:30.483Z,22.57
2018-12-17T03:04:34.590Z,24.00
2018-12-17T03:09:38.697Z,26.43
2018-12-17T03:14:42.804Z,25.20
2018-12-17T03:19:47.040Z,26.07
2018-12-17T03:24:51.155Z,23.77
2018-12-17T03:29:55.271Z,25.37
2018-12-17T03:34:59.471Z,27.10
2018-12-17T03:40:04.037Z,24.63
2018-12-17T03:45:08.389Z,25.07
2018-12-17T03:50:13.269Z,25.70
2018-12-17T03:55:17.291Z,24.53
2018-12-17T04:00:21.422Z,23.03
2018-12-17T04:05:25.623Z,25.27
2018-12-17T04:10:29.416Z,24.93
2018-12-17T04:15:33.677Z,22.70
2018-12-17T04:20:37.787Z,23.23
2018-12-17T04:25:41.892Z,27.33
2018-12-17T04:30:45.711Z,25.70
2018-12-17T04:35:49.824Z,28.53
2018-12-17T04:40:53.632Z,28.97
2018-12-17T04:45:57.350Z,29.80
2018-12-17T04:51:01.038Z,27.17
2018-12-17T04:56:04.746Z,26.10
2018-12-17T05:01:08.779Z,25.50
2018-12-17T05:06:12.886Z,26.23
2018-12-17T05:11:17.530Z,16.20
2018-12-17T05:16:21.638Z,25.17
2018-12-17T05:21:25.907Z,27.03
2018-12-17T05:26:29.800Z,25.33
2018-12-17T05:31:33.527Z,13.30
2018-12-17T05:36:37.560Z,28.03
2018-12-17T05:41:41.683Z,23.23
2018-12-17T05:46:45.859Z,19.00
2018-12-17T05:51:49.948Z,23.90
2018-12-17T05:56:54.187Z,23.43
2018-12-17T06:01:58.279Z,25.43
2018-12-17T06:07:02.450Z,24.43
2018-12-17T06:12:06.598Z,28.30
2018-12-17T06:17:10.725Z,27.87
2018-12-17T06:22:14.857Z,26.93
2018-12-17T06:27:18.967Z,25.37
2018-12-17T06:32:24.163Z,26.93
2018-12-17T06:37:28.275Z,27.97
2018-12-17T06:42:32.055Z,25.17
2018-12-17T06:47:36.067Z,25.30
2018-12-17T06:52:39.846Z,26.30
2018-12-17T06:57:43.875Z,27.37
2018-12-17T07:02:48.007Z,26.80
2018-12-17T07:07:52.119Z,27.57
2018-12-17T07:12:56.220Z,26.10
2018-12-17T07:18:00.308Z,24.57
2018-12-17T07:23:04.413Z,24.83
2018-12-17T07:28:08.516Z,25.70
2018-12-17T07:33:12.715Z,23.37
2018-12-17T07:38:16.843Z,23.03
2018-12-17T07:43:20.939Z,25.97
2018-12-17T07:48:25.035Z,30.00
2018-12-17T07:53:29.119Z,26.83
2018-12-17T07:58:32.894Z,29.67
2018-12-17T08:03:37.217Z,28.60
2018-12-17T08:08:40.995Z,28.93
2018-12-17T08:13:45.004Z,26.60
2018-12-17T08:18:49.860Z,27.57
2018-12-17T08:23:54.091Z,28.87
2018-12-17T08:28:58.224Z,26.90
2018-12-17T08:34:02.298Z,27.70
2018-12-17T08:39:07.919Z,27.17
2018-12-17T08:44:13.100Z,29.50
2018-12-17T08:49:16.898Z,27.83
2018-12-17T08:54:20.909Z,27.33
2018-12-17T08:59:25.000Z,28.70
2018-12-17T09:04:28.771Z,31.80
2018-12-17T09:09:32.779Z,31.20
2018-12-17T09:14:36.891Z,29.10
2018-12-17T09:19:41.005Z,29.97
2018-12-17T09:24:45.997Z,30.10
2018-12-17T09:29:50.299Z,30.90
2018-12-17T09:34:54.482Z,30.43
2018-12-17T09:39:58.684Z,27.80
2018-12-17T09:45:02.808Z,29.23
2018-12-17T09:50:06.926Z,30.70
2018-12-17T09:55:12.005Z,30.03
2018-12-17T10:00:16.199Z,31.07
2018-12-17T10:05:20.288Z,31.47
2018-12-17T10:10:24.372Z,31.70
2018-12-17T10:15:28.483Z,32.63
2018-12-17T10:20:32.573Z,29.83
2018-12-17T10:25:36.704Z,33.80
2018-12-17T10:30:40.801Z,31.23
2018-12-17T10:35:44.579Z,31.60
2018-12-17T10:40:48.588Z,30.40
2018-12-17T10:45:52.824Z,29.43
2018-12-17T10:50:57.727Z,30.17
2018-12-17T10:56:01.835Z,31.43
2018-12-17T11:01:11.306Z,34.87
2018-12-17T11:06:17.144Z,33.80
2018-12-17T11:11:21.238Z,31.17
2018-12-17T11:16:25.453Z,31.60
2018-12-17T11:21:29.552Z,33.27
2018-12-17T11:26:33.631Z,35.77
2018-12-17T11:31:37.409Z,31.63
2018-12-17T11:36:41.430Z,31.30
2018-12-17T11:41:45.545Z,30.73
2018-12-17T11:46:49.651Z,34.40
2018-12-17T11:51:53.751Z,32.20
2018-12-17T11:57:12.740Z,31.07
2018-12-17T12:02:16.531Z,32.47
2018-12-17T12:07:20.632Z,32.90
2018-12-17T12:12:24.775Z,34.80
2018-12-17T12:17:28.920Z,39.53
2018-12-17T12:22:33.013Z,36.13
2018-12-17T12:27:36.806Z,41.53
2018-12-17T12:32:40.507Z,41.33
2018-12-17T12:37:44.532Z,40.40
2018-12-17T12:42:51.579Z,38.20
2018-12-17T12:47:54.343Z,36.03
2018-12-17T12:52:58.560Z,35.83
2018-12-17T12:58:03.832Z,35.13
2018-12-17T13:03:09.834Z,37.77
2018-12-17T13:08:14.038Z,40.83
2018-12-17T13:13:18.152Z,37.73
2018-12-17T13:18:21.979Z,35.70
2018-12-17T13:23:25.743Z,41.00
2018-12-17T13:28:29.450Z,39.93
2018-12-17T13:33:33.248Z,38.00
2018-12-17T13:38:37.046Z,39.73
2018-12-17T13:43:41.061Z,39.93
2018-12-17T13:48:45.106Z,40.00
2018-12-17T13:53:49.288Z,40.23
2018-12-17T13:58:53.067Z,41.00
2018-12-17T14:03:56.770Z,44.47
2018-12-17T14:09:00.596Z,42.73
2018-12-17T14:14:05.707Z,47.07
2018-12-17T14:19:14.993Z,43.30
2018-12-17T14:24:19.125Z,48.17
2018-12-17T14:29:22.948Z,37.50
2018-12-17T14:34:26.748Z,28.60
2018-12-17T14:39:30.514Z,34.90
2018-12-17T14:44:35.160Z,32.43
2018-12-17T14:49:39.315Z,30.40
2018-12-17T14:54:44.122Z,35.47
2018-12-17T14:59:48.949Z,37.33
2018-12-17T15:04:53.835Z,36.30
2018-12-17T15:09:57.616Z,35.57
2018-12-17T15:15:02.154Z,38.87
2018-12-17T15:20:07.255Z,36.60
2018-12-17T15:25:12.087Z,35.07
2018-12-17T15:30:15.916Z,34.57
2018-12-17T15:35:19.669Z,37.67
2018-12-17T15:40:23.793Z,37.37
2018-12-17T15:45:27.498Z,37.80
2018-12-17T15:50:32.732Z,39.93
2018-12-17T15:55:38.269Z,40.13
2018-12-17T16:00:42.127Z,41.63
2018-12-17T16:05:46.028Z,36.77
2018-12-17T16:10:49.827Z,30.13
2018-12-17T16:15:53.562Z,30.43
2018-12-17T16:20:58.146Z,37.17
2018-12-17T16:26:02.252Z,35.90
2018-12-17T16:31:07.121Z,37.63
2018-12-17T16:36:12.266Z,35.37
2018-12-17T16:41:16.607Z,35.23
2018-12-17T16:46:20.459Z,35.63
2018-12-17T16:51:25.009Z,35.10
2018-12-17T16:56:30.698Z,31.93
2018-12-17T17:01:34.546Z,38.13
2018-12-17T17:06:39.208Z,32.80
2018-12-17T17:11:43.574Z,36.13
2018-12-17T17:16:47.574Z,37.87
2018-12-17T17:21:51.843Z,35.43
2018-12-17T17:26:56.467Z,35.67
2018-12-17T17:32:02.455Z,34.63
2018-12-17T17:37:07.624Z,32.77
2018-12-17T17:42:12.379Z,35.13
2018-12-17T17:47:18.032Z,32.53
2018-12-17T17:52:23.327Z,32.40
2018-12-17T17:57:27.623Z,33.50
2018-12-17T18:02:31.439Z,32.80
2018-12-17T18:07:36.167Z,31.87
2018-12-17T18:12:39.853Z,33.70
2018-12-17T18:17:43.564Z,36.53
2018-12-17T18:22:47.550Z,35.67
2018-12-17T18:27:51.327Z,33.87
2018-12-17T18:32:55.340Z,33.20
2018-12-17T18:37:59.504Z,35.20
2018-12-17T18:43:03.746Z,34.03
2018-12-17T18:48:08.439Z,30.00
2018-12-17T18:53:12.539Z,30.83
2018-12-17T18:58:16.335Z,30.93
2018-12-17T19:03:20.327Z,34.43
2018-12-17T19:08:24.703Z,33.43
2018-12-17T19:13:29.719Z,33.20
2018-12-17T19:18:33.828Z,35.63
2018-12-17T19:23:37.647Z,33.77
2018-12-17T19:28:43.521Z,35.57
2018-12-17T19:33:47.612Z,33.57
2018-12-17T19:38:51.395Z,31.87
2018-12-17T19:43:55.762Z,31.37
2018-12-17T19:49:00.428Z,32.13
2018-12-17T19:54:04.354Z,39.70
2018-12-17T19:59:08.214Z,34.23
2018-12-17T20:04:12.258Z,32.13
2018-12-17T20:09:16.034Z,34.27
2018-12-17T20:14:20.166Z,32.83
2018-12-17T20:19:24.193Z,36.37
2018-12-17T20:24:28.653Z,35.43
2018-12-17T20:29:33.271Z,34.10
2018-12-17T20:34:37.099Z,33.40
2018-12-17T20:39:40.950Z,29.63
2018-12-17T20:44:45.051Z,32.30
2018-12-17T20:49:48.887Z,36.90
2018-12-17T20:54:52.617Z,37.10
2018-12-17T20:59:56.600Z,33.53
2018-12-17T21:05:00.403Z,31.57
2018-12-17T21:10:04.430Z,32.30
2018-12-17T21:15:08.158Z,43.57
2018-12-17T21:20:13.252Z,34.37
2018-12-17T21:25:18.640Z,32.73
2018-12-17T21:30:22.450Z,33.37
2018-12-17T21:35:27.219Z,35.50
2018-12-17T21:40:32.055Z,33.97
2018-12-17T21:45:36.239Z,32.90
2018-12-17T21:50:40.372Z,31.53
2018-12-17T21:55:46.380Z,30.07
2018-12-17T22:00:51.101Z,29.23
2018-12-17T22:05:59.034Z,28.70
2018-12-17T22:11:03.471Z,30.67
2018-12-17T22:16:09.243Z,27.57
2018-12-17T22:21:14.132Z,30.63
2018-12-17T22:26:19.110Z,37.27
2018-12-17T22:31:23.441Z,37.67
2018-12-17T22:36:29.686Z,33.40
2018-12-17T22:41:33.788Z,30.27
2018-12-17T22:46:38.019Z,29.47
2018-12-17T22:51:42.124Z,28.90
2018-12-17T22:56:46.340Z,33.83
2018-12-17T23:01:50.932Z,26.13
2018-12-17T23:06:55.258Z,25.47
2018-12-17T23:12:11.089Z,28.03
2018-12-17T23:17:26.847Z,29.57
2018-12-17T23:22:33.458Z,33.57
2018-12-17T23:27:46.935Z,30.30
2018-12-17T23:32:52.739Z,31.00
2018-12-17T23:37:57.115Z,27.43
2018-12-17T23:43:01.648Z,30.27
2018-12-17T23:48:05.867Z,28.83
2018-12-17T23:53:10.352Z,28.47
2018-12-17T23:58:15.309Z,29.27
